createdAt,value
2022-12-24T00:01:58.891Z,11.30
2022-12-24T00:04:27.329Z,11.30
2022-12-24T00:06:57.131Z,11.30
2022-12-24T00:09:29.965Z,11.30
2022-12-24T00:11:58.470Z,11.30
2022-12-24T00:14:27.306Z,11.30
2022-12-24T00:16:56.110Z,11.30
2022-12-24T00:19:24.931Z,11.20
2022-12-24T00:21:53.396Z,11.20
2022-12-24T00:24:23.455Z,11.20
2022-12-24T00:26:51.723Z,11.20
2022-12-24T00:29:20.359Z,11.10
2022-12-24T00:31:48.749Z,11.10
2022-12-24T00:34:17.180Z,11.10
2022-12-24T00:36:46.066Z,11.10
2022-12-24T00:39:14.470Z,11.00
2022-12-24T00:41:44.508Z,11.00
2022-12-24T00:44:13.454Z,10.90
2022-12-24T00:46:43.112Z,10.80
2022-12-24T00:49:14.784Z,10.70
2022-12-24T00:51:43.117Z,10.60
2022-12-24T00:54:11.627Z,10.60
2022-12-24T00:56:40.078Z,10.50
2022-12-24T00:59:10.066Z,10.50
2022-12-24T01:01:38.458Z,10.40
2022-12-24T01:04:25.341Z,10.40
2022-12-24T01:06:53.665Z,10.40
2022-12-24T01:09:24.761Z,10.40
2022-12-24T01:11:53.202Z,10.40
2022-12-24T01:14:23.219Z,10.40
2022-12-24T01:16:51.632Z,10.40
2022-12-24T01:19:20.064Z,10.50
2022-12-24T01:21:48.390Z,10.50
2022-12-24T01:24:17.450Z,10.50
2022-12-24T01:26:45.946Z,10.50
2022-12-24T01:29:14.669Z,10.40
2022-12-24T01:31:44.648Z,10.40
2022-12-24T01:34:13.159Z,10.40
2022-12-24T01:36:41.496Z,10.30
2022-12-24T01:39:09.902Z,10.20
2022-12-24T01:41:55.984Z,10.20
2022-12-24T01:44:35.225Z,10.20
2022-12-24T01:47:12.852Z,10.20
2022-12-24T01:49:43.917Z,10.30
2022-12-24T01:52:16.356Z,10.20
2022-12-24T01:54:49.183Z,10.20
2022-12-24T01:57:21.653Z,10.20
2022-12-24T01:59:53.799Z,10.20
2022-12-24T02:02:24.456Z,10.20
2022-12-24T02:04:57.707Z,10.10
2022-12-24T02:07:26.732Z,10.10
2022-12-24T02:09:58.293Z,10.10
2022-12-24T02:12:27.243Z,10.10
2022-12-24T02:14:55.988Z,10.10
2022-12-24T02:17:32.923Z,10.10
2022-12-24T02:20:35.215Z,10.10
2022-12-24T02:23:29.712Z,10.20
2022-12-24T02:26:19.458Z,10.10
2022-12-24T02:29:15.448Z,10.10
2022-12-24T02:31:49.051Z,10.00
2022-12-24T02:34:23.908Z,10.00
2022-12-24T02:36:59.488Z,9.90
2022-12-24T02:39:35.331Z,9.90
2022-12-24T02:42:08.913Z,9.90
2022-12-24T02:44:42.183Z,9.80
2022-12-24T02:47:13.095Z,9.80
2022-12-24T02:49:45.581Z,9.70
2022-12-24T02:52:29.553Z,9.70
2022-12-24T02:54:58.969Z,9.60
2022-12-24T02:57:36.341Z,9.50
2022-12-24T03:00:09.225Z,9.50
2022-12-24T03:03:08.033Z,9.50
2022-12-24T03:05:43.898Z,9.50
2022-12-24T03:08:17.922Z,9.50
2022-12-24T03:10:56.828Z,9.50
2022-12-24T03:13:27.815Z,9.60
2022-12-24T03:15:56.645Z,9.60
2022-12-24T03:18:28.305Z,9.60
2022-12-24T03:21:02.110Z,9.60
2022-12-24T03:23:30.655Z,9.60
2022-12-24T03:26:01.475Z,9.60
2022-12-24T03:28:30.743Z,9.60
2022-12-24T03:31:03.354Z,9.70
2022-12-24T03:33:34.042Z,9.80
2022-12-24T03:36:02.447Z,9.90
2022-12-24T03:38:30.873Z,9.90
2022-12-24T03:40:59.273Z,10.00
2022-12-24T03:43:27.903Z,10.10
2022-12-24T03:45:56.489Z,10.10
2022-12-24T03:48:32.413Z,10.20
2022-12-24T03:51:02.897Z,10.20
2022-12-24T03:53:31.320Z,10.20
2022-12-24T03:56:00.277Z,10.20
2022-12-24T03:58:28.558Z,10.20
2022-12-24T04:00:57.025Z,10.30
2022-12-24T04:03:25.471Z,10.30
2022-12-24T04:06:03.648Z,10.40
2022-12-24T04:08:32.119Z,10.50
2022-12-24T04:11:06.219Z,10.50
2022-12-24T04:13:37.992Z,10.60
2022-12-24T04:16:08.833Z,10.70
2022-12-24T04:18:37.861Z,10.70
2022-12-24T04:21:09.258Z,10.70
2022-12-24T04:23:39.639Z,10.70
2022-12-24T04:26:11.428Z,10.70
2022-12-24T04:28:40.861Z,10.70
2022-12-24T04:31:12.794Z,10.70
2022-12-24T04:33:41.267Z,10.70
2022-12-24T04:36:15.054Z,10.70
2022-12-24T04:38:43.471Z,10.70
2022-12-24T04:41:20.814Z,10.70
2022-12-24T04:43:52.571Z,10.70
2022-12-24T04:46:23.105Z,10.80
2022-12-24T04:48:53.280Z,10.80
2022-12-24T04:51:23.628Z,10.70
2022-12-24T04:53:52.092Z,10.70
2022-12-24T04:56:24.973Z,10.80
2022-12-24T04:58:53.628Z,10.80
2022-12-24T05:01:24.695Z,10.80
2022-12-24T05:03:53.756Z,10.80
2022-12-24T05:06:25.692Z,10.70
2022-12-24T05:08:56.008Z,10.70
2022-12-24T05:11:24.970Z,10.70
2022-12-24T05:13:53.495Z,10.70
2022-12-24T05:16:22.931Z,10.70
2022-12-24T05:18:51.480Z,10.60
2022-12-24T05:21:21.700Z,10.60
2022-12-24T05:24:10.732Z,10.50
2022-12-24T05:26:42.700Z,10.60
2022-12-24T05:29:13.386Z,10.60
2022-12-24T05:31:43.043Z,10.60
2022-12-24T05:34:11.782Z,10.60
2022-12-24T05:36:40.293Z,10.60
2022-12-24T05:39:15.638Z,10.60
2022-12-24T05:41:46.166Z,10.60
2022-12-24T05:44:16.318Z,10.60
2022-12-24T05:46:45.072Z,10.60
2022-12-24T05:49:13.874Z,10.60
2022-12-24T05:51:42.713Z,10.60
2022-12-24T05:54:12.616Z,10.60
2022-12-24T05:56:41.006Z,10.60
2022-12-24T05:59:09.503Z,10.60
2022-12-24T06:01:38.114Z,10.60
2022-12-24T06:04:06.802Z,10.60
2022-12-24T06:06:35.316Z,10.60
2022-12-24T06:09:03.662Z,10.60
2022-12-24T06:11:33.653Z,10.60
2022-12-24T06:14:02.076Z,10.60
2022-12-24T06:16:30.647Z,10.60
2022-12-24T06:18:58.974Z,10.60
2022-12-24T06:21:27.497Z,10.60
2022-12-24T06:23:56.029Z,10.60
2022-12-24T06:26:24.678Z,10.70
2022-12-24T06:28:54.810Z,10.70
2022-12-24T06:31:24.894Z,10.70
2022-12-24T06:33:54.336Z,10.70
2022-12-24T06:36:24.625Z,10.70
2022-12-24T06:38:54.625Z,10.70
2022-12-24T06:41:23.697Z,10.70
2022-12-24T06:43:55.104Z,10.70
2022-12-24T06:46:23.816Z,10.80
2022-12-24T06:48:52.439Z,10.80
2022-12-24T06:51:21.027Z,10.70
2022-12-24T06:53:50.728Z,10.70
2022-12-24T06:56:19.923Z,10.70
2022-12-24T06:58:48.625Z,10.60
2022-12-24T07:01:20.944Z,10.50
2022-12-24T07:03:49.599Z,10.40
2022-12-24T07:06:21.458Z,10.40
2022-12-24T07:08:49.866Z,10.40
2022-12-24T07:11:27.997Z,10.40
2022-12-24T07:13:56.753Z,10.40
2022-12-24T07:16:26.719Z,10.50
2022-12-24T07:18:55.323Z,10.50
2022-12-24T07:21:23.693Z,10.50
2022-12-24T07:23:52.211Z,10.60
2022-12-24T07:26:20.571Z,10.60
2022-12-24T07:28:49.068Z,10.60
2022-12-24T07:31:17.736Z,10.60
2022-12-24T07:33:47.718Z,10.50
2022-12-24T07:36:20.801Z,10.40
2022-12-24T07:38:49.669Z,10.40
2022-12-24T07:41:18.176Z,10.30
2022-12-24T07:43:46.787Z,10.20
2022-12-24T07:46:16.220Z,10.20
2022-12-24T07:48:44.865Z,10.10
2022-12-24T07:51:14.988Z,10.10
2022-12-24T07:53:48.138Z,10.00
2022-12-24T07:56:16.826Z,10.00
2022-12-24T07:58:45.596Z,10.10
2022-12-24T08:01:14.292Z,10.20
2022-12-24T08:03:42.991Z,10.30
2022-12-24T08:06:12.361Z,10.30
2022-12-24T08:08:45.931Z,10.40
2022-12-24T08:11:14.958Z,10.40
2022-12-24T08:13:43.721Z,10.50
2022-12-24T08:16:12.340Z,10.50
2022-12-24T08:18:41.091Z,10.50
2022-12-24T08:21:10.431Z,10.40
2022-12-24T08:23:39.254Z,10.30
2022-12-24T08:26:10.906Z,10.30
2022-12-24T08:28:39.589Z,10.30
2022-12-24T08:31:08.615Z,10.40
2022-12-24T08:33:37.221Z,10.40
2022-12-24T08:36:06.498Z,10.50
2022-12-24T08:38:34.973Z,10.40
2022-12-24T08:41:03.340Z,10.40
2022-12-24T08:43:33.444Z,10.40
2022-12-24T08:46:05.410Z,10.40
2022-12-24T08:48:34.355Z,10.40
2022-12-24T08:51:07.354Z,10.50
2022-12-24T08:53:35.916Z,10.40
2022-12-24T08:56:05.627Z,10.40
2022-12-24T08:58:35.964Z,10.50
2022-12-24T09:01:12.872Z,10.50
2022-12-24T09:03:41.506Z,10.60
2022-12-24T09:06:11.124Z,10.60
2022-12-24T09:08:40.200Z,10.60
2022-12-24T09:11:11.071Z,10.70
2022-12-24T09:13:41.650Z,10.80
2022-12-24T09:16:10.930Z,10.90
2022-12-24T09:18:39.779Z,10.90
2022-12-24T09:21:09.673Z,11.00
2022-12-24T09:23:40.859Z,11.00
2022-12-24T09:26:10.385Z,11.10
2022-12-24T09:28:40.591Z,11.20
2022-12-24T09:31:09.731Z,11.20
2022-12-24T09:33:40.293Z,11.20
2022-12-24T09:36:09.553Z,11.20
2022-12-24T09:38:40.181Z,11.20
2022-12-24T09:41:15.606Z,11.30
2022-12-24T09:43:51.603Z,11.40
2022-12-24T09:46:28.953Z,11.40
2022-12-24T09:49:00.218Z,11.40
2022-12-24T09:51:33.310Z,11.30
2022-12-24T09:54:05.924Z,11.40
2022-12-24T09:56:39.844Z,11.40
2022-12-24T09:59:15.762Z,11.50
2022-12-24T10:01:44.925Z,11.50
2022-12-24T10:04:16.548Z,11.50
2022-12-24T10:06:52.745Z,11.40
2022-12-24T10:09:30.216Z,11.30
2022-12-24T10:12:08.352Z,11.30
2022-12-24T10:14:56.687Z,11.30
2022-12-24T10:17:38.776Z,11.40
2022-12-24T10:20:28.475Z,11.40
2022-12-24T10:23:03.481Z,11.50
2022-12-24T10:25:37.925Z,11.50
2022-12-24T10:28:15.843Z,11.40
2022-12-24T10:30:48.987Z,11.40
2022-12-24T10:33:21.493Z,11.40
2022-12-24T10:35:55.365Z,11.50
2022-12-24T10:38:23.940Z,11.50
2022-12-24T10:40:54.714Z,11.60
2022-12-24T10:43:25.896Z,11.60
2022-12-24T10:46:00.953Z,11.70
2022-12-24T10:48:31.707Z,11.90
2022-12-24T10:51:04.429Z,12.00
2022-12-24T10:53:43.771Z,12.10
2022-12-24T10:56:15.033Z,12.40
2022-12-24T10:58:46.958Z,12.40
2022-12-24T11:01:17.325Z,12.30
2022-12-24T11:04:02.229Z,12.30
2022-12-24T11:06:31.291Z,12.30
2022-12-24T11:09:21.023Z,12.40
2022-12-24T11:11:50.494Z,12.50
2022-12-24T11:14:23.628Z,12.40
2022-12-24T11:16:55.687Z,12.40
2022-12-24T11:19:33.284Z,12.40
2022-12-24T11:22:05.036Z,12.60
2022-12-24T11:24:35.594Z,12.50
2022-12-24T11:27:41.235Z,12.50
2022-12-24T11:30:30.461Z,12.50
2022-12-24T11:33:36.662Z,12.60
2022-12-24T11:36:09.543Z,12.70
2022-12-24T11:38:39.237Z,12.70
2022-12-24T11:41:12.594Z,12.70
2022-12-24T11:43:50.032Z,12.70
2022-12-24T11:46:37.909Z,13.10
2022-12-24T11:49:17.086Z,13.40
2022-12-24T11:52:18.153Z,13.40
2022-12-24T11:55:02.353Z,13.30
2022-12-24T11:57:44.710Z,13.10
2022-12-24T12:00:14.657Z,12.90
2022-12-24T12:02:49.522Z,12.60
2022-12-24T12:05:23.186Z,12.70
2022-12-24T12:08:00.912Z,12.70
2022-12-24T12:10:33.480Z,13.10
2022-12-24T12:14:30.465Z,13.30
2022-12-24T12:17:21.829Z,13.50
2022-12-24T12:24:12.395Z,14.00
2022-12-24T12:27:46.087Z,14.20
2022-12-24T12:30:42.411Z,15.10
2022-12-24T13:00:57.307Z,14.00
2022-12-24T13:04:13.393Z,14.10
2022-12-24T13:07:38.189Z,14.50
2022-12-24T13:10:53.253Z,14.70
2022-12-24T13:14:50.238Z,15.50
2022-12-24T13:49:43.386Z,16.80
2022-12-24T13:52:23.722Z,16.50
2022-12-24T13:55:14.967Z,16.70
2022-12-24T13:57:55.102Z,16.50
2022-12-24T14:01:23.269Z,16.20
2022-12-24T14:04:57.496Z,16.30
2022-12-24T14:08:12.023Z,16.30
2022-12-24T14:11:37.745Z,16.50
2022-12-24T14:14:47.468Z,16.40
2022-12-24T14:17:52.659Z,16.30
2022-12-24T14:21:11.620Z,16.40
2022-12-24T14:28:00.728Z,15.30
2022-12-24T14:31:38.215Z,14.80
2022-12-24T14:34:19.313Z,14.10
2022-12-24T14:36:50.881Z,14.10
2022-12-24T14:39:37.675Z,14.20
2022-12-24T14:42:27.553Z,14.20
2022-12-24T14:45:06.887Z,14.20
2022-12-24T14:47:43.229Z,14.00
2022-12-24T14:50:38.703Z,13.80
2022-12-24T14:53:22.195Z,13.30
2022-12-24T14:55:52.923Z,12.90
2022-12-24T14:58:33.086Z,12.60
2022-12-24T15:01:05.868Z,12.40
2022-12-24T15:03:36.304Z,12.20
2022-12-24T15:06:08.361Z,12.00
2022-12-24T15:08:43.300Z,11.80
2022-12-24T15:11:19.436Z,11.70
2022-12-24T15:13:53.880Z,11.60
2022-12-24T15:16:27.544Z,11.40
2022-12-24T15:19:01.867Z,11.30
2022-12-24T15:21:33.472Z,11.10
2022-12-24T15:24:06.733Z,11.00
2022-12-24T15:26:37.572Z,10.90
2022-12-24T15:29:23.106Z,10.80
2022-12-24T15:31:58.394Z,10.70
2022-12-24T15:34:36.584Z,10.60
2022-12-24T15:37:08.926Z,10.40
2022-12-24T15:39:38.085Z,10.40
2022-12-24T15:42:18.225Z,10.30
2022-12-24T15:44:58.777Z,10.20
2022-12-24T15:47:38.422Z,10.20
2022-12-24T15:50:17.336Z,10.00
2022-12-24T15:52:47.569Z,9.80
2022-12-24T15:55:40.245Z,9.50
2022-12-24T15:58:22.309Z,9.40
2022-12-24T16:01:07.265Z,9.30
2022-12-24T16:03:39.100Z,9.40
2022-12-24T16:06:09.833Z,9.40
2022-12-24T16:08:40.302Z,9.40
2022-12-24T16:11:19.390Z,9.40
2022-12-24T16:14:04.049Z,9.40
2022-12-24T16:16:37.904Z,9.40
2022-12-24T16:19:11.409Z,9.30
2022-12-24T16:21:43.063Z,9.20
2022-12-24T16:24:18.541Z,9.10
2022-12-24T16:26:48.481Z,9.00
2022-12-24T16:29:20.564Z,8.90
2022-12-24T16:31:55.190Z,8.80
2022-12-24T16:34:26.293Z,8.60
2022-12-24T16:36:57.137Z,8.40
2022-12-24T16:39:30.829Z,8.30
2022-12-24T16:42:21.134Z,8.10
2022-12-24T16:44:55.645Z,8.00
2022-12-24T16:47:33.813Z,7.90
2022-12-24T16:50:08.775Z,7.80
2022-12-24T16:52:37.838Z,7.70
2022-12-24T16:55:08.692Z,7.70
2022-12-24T16:57:38.140Z,7.60
2022-12-24T17:00:18.453Z,7.60
2022-12-24T17:02:48.944Z,7.60
2022-12-24T17:05:18.805Z,7.80
2022-12-24T17:07:47.639Z,7.90
2022-12-24T17:10:16.697Z,8.00
2022-12-24T17:12:46.021Z,8.10
2022-12-24T17:15:18.346Z,8.00
2022-12-24T17:17:48.241Z,7.90
2022-12-24T17:20:23.653Z,7.70
2022-12-24T17:22:53.980Z,7.70
2022-12-24T17:25:23.720Z,7.60
2022-12-24T17:27:52.549Z,7.50
2022-12-24T17:30:22.967Z,7.40
2022-12-24T17:32:51.672Z,7.40
2022-12-24T17:35:20.574Z,7.40
2022-12-24T17:37:49.874Z,7.40
2022-12-24T17:40:20.212Z,7.40
2022-12-24T17:42:58.422Z,7.40
2022-12-24T17:45:29.452Z,7.40
2022-12-24T17:48:00.253Z,7.50
2022-12-24T17:50:32.991Z,7.40
2022-12-24T17:53:03.194Z,7.40
2022-12-24T17:55:36.415Z,7.30
2022-12-24T17:58:07.959Z,7.30
2022-12-24T18:00:44.279Z,7.40
2022-12-24T18:03:19.253Z,7.40
2022-12-24T18:05:49.576Z,7.20
2022-12-24T18:08:20.275Z,7.00
2022-12-24T18:10:50.685Z,7.00
2022-12-24T18:13:24.063Z,7.10
2022-12-24T18:15:57.557Z,7.10
2022-12-24T18:18:30.254Z,7.10
2022-12-24T18:21:01.404Z,7.10
2022-12-24T18:23:34.537Z,7.10
2022-12-24T18:26:04.925Z,7.00
2022-12-24T18:28:38.194Z,6.90
2022-12-24T18:31:12.142Z,6.80
2022-12-24T18:33:46.037Z,6.80
2022-12-24T18:36:16.378Z,6.70
2022-12-24T18:38:46.252Z,6.60
2022-12-24T18:41:21.426Z,6.50
2022-12-24T18:43:51.741Z,6.50
2022-12-24T18:46:25.686Z,6.40
2022-12-24T18:49:03.036Z,6.40
2022-12-24T18:51:36.142Z,6.40
2022-12-24T18:54:08.899Z,6.40
2022-12-24T18:56:40.278Z,6.30
2022-12-24T18:59:10.886Z,6.30
2022-12-24T19:01:41.471Z,6.20
2022-12-24T19:04:12.200Z,6.20
2022-12-24T19:06:45.828Z,6.20
2022-12-24T19:09:17.894Z,6.30
2022-12-24T19:11:47.385Z,6.40
2022-12-24T19:14:21.750Z,6.50
2022-12-24T19:16:53.494Z,6.50
2022-12-24T19:19:24.473Z,6.50
2022-12-24T19:21:53.535Z,6.50
2022-12-24T19:24:22.931Z,6.50
2022-12-24T19:26:52.805Z,6.60
2022-12-24T19:29:22.390Z,6.70
2022-12-24T19:31:53.025Z,6.80
2022-12-24T19:34:22.648Z,6.90
2022-12-24T19:36:51.655Z,7.00
2022-12-24T19:39:22.329Z,7.10
2022-12-24T19:41:54.416Z,7.10
2022-12-24T19:44:23.895Z,7.30
2022-12-24T19:46:55.113Z,7.20
2022-12-24T19:49:24.597Z,7.20
2022-12-24T19:51:55.004Z,7.20
2022-12-24T19:54:24.827Z,7.20
2022-12-24T19:56:56.721Z,7.20
2022-12-24T19:59:25.845Z,7.20
2022-12-24T20:01:56.662Z,7.20
2022-12-24T20:04:26.665Z,7.30
2022-12-24T20:07:00.084Z,7.40
2022-12-24T20:09:31.881Z,7.50
2022-12-24T20:12:00.892Z,7.70
2022-12-24T20:14:30.237Z,7.60
2022-12-24T20:17:01.205Z,7.60
2022-12-24T20:19:30.179Z,7.60
2022-12-24T20:21:58.916Z,7.60
2022-12-24T20:24:29.470Z,7.50
2022-12-24T20:26:58.427Z,7.40
2022-12-24T20:29:27.771Z,7.40
2022-12-24T20:31:58.828Z,7.40
2022-12-24T20:34:29.791Z,7.20
2022-12-24T20:36:59.643Z,7.20
2022-12-24T20:39:30.606Z,7.40
2022-12-24T20:42:01.296Z,7.50
2022-12-24T20:44:31.143Z,7.60
2022-12-24T20:47:00.239Z,7.50
2022-12-24T20:49:32.841Z,7.40
2022-12-24T20:52:02.427Z,7.20
2022-12-24T20:54:33.690Z,7.20
2022-12-24T20:57:03.283Z,7.20
2022-12-24T20:59:36.458Z,7.30
2022-12-24T21:02:06.973Z,7.50
2022-12-24T21:04:38.863Z,7.60
2022-12-24T21:07:08.768Z,7.70
2022-12-24T21:09:38.054Z,7.80
2022-12-24T21:12:24.838Z,7.80
2022-12-24T21:14:57.220Z,7.80
2022-12-24T21:17:29.168Z,8.00
2022-12-24T21:22:55.975Z,8.30
2022-12-24T21:25:30.318Z,8.30
2022-12-24T21:27:59.939Z,8.40
2022-12-24T21:30:29.057Z,8.50
2022-12-24T21:32:58.808Z,8.60
2022-12-24T21:35:30.395Z,8.50
2022-12-24T21:38:00.004Z,8.60
2022-12-24T21:40:29.250Z,8.70
2022-12-24T22:29:04.067Z,8.40
2022-12-24T22:31:53.031Z,8.60
2022-12-24T22:34:22.014Z,8.50
2022-12-24T22:36:56.706Z,8.50
2022-12-24T22:39:43.164Z,8.40
2022-12-24T22:43:28.591Z,8.40
2022-12-24T22:46:17.298Z,8.30
2022-12-24T22:48:47.429Z,8.30
2022-12-24T22:51:19.995Z,8.20
2022-12-24T22:53:48.786Z,8.20
2022-12-24T22:56:22.677Z,8.10
2022-12-24T22:58:55.405Z,8.10
2022-12-24T23:01:35.618Z,8.00
2022-12-24T23:04:06.134Z,8.00
2022-12-24T23:06:35.928Z,8.00
2022-12-24T23:09:07.516Z,8.00
2022-12-24T23:11:36.487Z,8.10
2022-12-24T23:14:22.358Z,8.30
2022-12-24T23:16:52.617Z,8.30
2022-12-24T23:19:21.319Z,8.20
2022-12-24T23:21:50.169Z,8.10
2022-12-24T23:24:18.871Z,8.10
2022-12-24T23:26:48.024Z,8.00
2022-12-24T23:29:16.711Z,7.90
2022-12-24T23:31:45.584Z,7.90
2022-12-24T23:34:16.913Z,7.90
2022-12-24T23:36:45.974Z,7.90
2022-12-24T23:39:14.720Z,7.80
2022-12-24T23:41:43.339Z,7.90
2022-12-24T23:44:12.143Z,8.10
2022-12-24T23:46:40.835Z,8.20
2022-12-24T23:49:09.627Z,8.30
2022-12-24T23:51:39.785Z,8.40
2022-12-24T23:54:08.353Z,8.50
2022-12-24T23:56:37.165Z,8.60
2022-12-24T23:59:06.339Z,8.60
